createdAt,value
2019-01-28T00:00:31.294Z,969.38
2019-01-28T00:01:31.331Z,969.38
2019-01-28T00:02:31.367Z,969.41
2019-01-28T00:03:31.456Z,969.43
2019-01-28T00:04:31.438Z,969.47
2019-01-28T00:05:31.480Z,969.47
2019-01-28T00:06:31.515Z,969.50
2019-01-28T00:07:31.551Z,969.50
2019-01-28T00:08:31.595Z,969.53
2019-01-28T00:09:31.624Z,969.54
2019-01-28T00:10:31.660Z,969.52
2019-01-28T00:11:31.699Z,969.57
2019-01-28T00:12:31.732Z,969.57
2019-01-28T00:13:31.789Z,969.55
2019-01-28T00:14:31.809Z,969.54
2019-01-28T00:15:31.843Z,969.51
2019-01-28T00:16:31.877Z,969.59
2019-01-28T00:17:31.921Z,969.57
2019-01-28T00:18:31.953Z,969.58
2019-01-28T00:19:31.986Z,969.63
2019-01-28T00:20:32.023Z,969.63
2019-01-28T00:21:32.060Z,969.68
2019-01-28T00:22:32.095Z,969.66
2019-01-28T00:23:32.138Z,969.67
2019-01-28T00:24:32.168Z,969.67
2019-01-28T00:25:32.204Z,969.65
2019-01-28T00:26:32.241Z,969.65
2019-01-28T00:27:32.277Z,969.67
2019-01-28T00:28:32.314Z,969.64
2019-01-28T00:29:32.351Z,969.62
2019-01-28T00:30:32.387Z,969.64
2019-01-28T00:31:32.423Z,969.68
2019-01-28T00:32:32.473Z,969.67
2019-01-28T00:33:32.505Z,969.68
2019-01-28T00:34:32.583Z,969.69
2019-01-28T00:35:32.568Z,969.72
2019-01-28T00:36:32.606Z,969.65
2019-01-28T00:37:32.640Z,969.67
2019-01-28T00:38:32.677Z,969.67
2019-01-28T00:39:32.715Z,969.66
2019-01-28T00:40:32.749Z,969.68
2019-01-28T00:41:32.790Z,969.67
2019-01-28T00:42:32.823Z,969.67
2019-01-28T00:43:32.858Z,969.69
2019-01-28T00:44:32.898Z,969.73
2019-01-28T00:45:32.947Z,969.72
2019-01-28T00:46:32.964Z,969.71
2019-01-28T00:47:33.003Z,969.68
2019-01-28T00:48:33.041Z,969.69
2019-01-28T00:49:33.084Z,969.70
2019-01-28T00:50:33.112Z,969.73
2019-01-28T00:51:33.149Z,969.71
2019-01-28T00:52:33.188Z,969.72
2019-01-28T00:53:33.221Z,969.72
2019-01-28T00:54:33.271Z,969.69
2019-01-28T00:55:33.293Z,969.76
2019-01-28T00:56:33.329Z,969.76
2019-01-28T00:57:33.368Z,969.75
2019-01-28T00:58:33.402Z,969.76
2019-01-28T00:59:33.439Z,969.73
2019-01-28T01:00:33.476Z,969.77
2019-01-28T01:01:33.520Z,969.81
2019-01-28T01:02:33.550Z,969.76
2019-01-28T01:03:33.586Z,969.78
2019-01-28T01:04:33.624Z,969.77
2019-01-28T01:05:33.658Z,969.80
2019-01-28T01:06:33.712Z,969.79
2019-01-28T01:07:33.728Z,969.82
2019-01-28T01:08:33.773Z,969.82
2019-01-28T01:09:33.806Z,969.90
2019-01-28T01:10:33.839Z,969.80
2019-01-28T01:11:33.879Z,969.80
2019-01-28T01:12:33.914Z,969.83
2019-01-28T01:13:33.962Z,969.80
2019-01-28T01:14:33.987Z,969.83
2019-01-28T01:15:34.023Z,969.79
2019-01-28T01:16:34.058Z,969.76
2019-01-28T01:17:34.105Z,969.82
2019-01-28T01:18:34.130Z,969.82
2019-01-28T01:19:34.177Z,969.84
2019-01-28T01:20:34.202Z,969.81
2019-01-28T01:21:34.246Z,969.80
2019-01-28T01:22:34.275Z,969.83
2019-01-28T01:23:34.310Z,969.81
2019-01-28T01:24:34.359Z,969.80
2019-01-28T01:25:34.385Z,969.81
2019-01-28T01:26:34.419Z,969.81
2019-01-28T01:27:34.458Z,969.77
2019-01-28T01:28:34.500Z,969.81
2019-01-28T01:29:34.532Z,969.85
2019-01-28T01:30:34.564Z,969.88
2019-01-28T01:31:34.608Z,969.87
2019-01-28T01:32:34.642Z,969.82
2019-01-28T01:33:34.675Z,969.83
2019-01-28T01:34:34.710Z,969.80
2019-01-28T01:35:34.755Z,969.85
2019-01-28T01:36:34.786Z,969.82
2019-01-28T01:37:34.835Z,969.87
2019-01-28T01:38:34.855Z,969.96
2019-01-28T01:39:34.897Z,969.91
2019-01-28T01:40:34.929Z,969.94
2019-01-28T01:41:34.966Z,969.96
2019-01-28T01:42:35.001Z,969.91
2019-01-28T01:43:35.039Z,969.90
2019-01-28T01:44:35.074Z,969.84
2019-01-28T01:45:35.110Z,969.82
2019-01-28T01:46:35.146Z,969.87
2019-01-28T01:47:35.182Z,969.85
2019-01-28T01:48:35.219Z,969.82
2019-01-28T01:49:35.258Z,969.87
2019-01-28T01:50:35.294Z,969.85
2019-01-28T01:51:35.342Z,969.81
2019-01-28T01:52:35.362Z,969.86
2019-01-28T01:53:35.408Z,969.86
2019-01-28T01:54:35.436Z,969.85
2019-01-28T01:55:35.472Z,969.81
2019-01-28T01:56:35.506Z,969.87
2019-01-28T01:57:35.594Z,969.87
2019-01-28T01:58:35.580Z,969.87
2019-01-28T01:59:35.615Z,969.90
2019-01-28T02:00:35.665Z,969.86
2019-01-28T02:01:35.687Z,969.88
2019-01-28T02:02:35.722Z,969.85
2019-01-28T02:03:35.762Z,969.90
2019-01-28T02:04:35.796Z,969.84
2019-01-28T02:05:35.832Z,969.89
2019-01-28T02:06:35.870Z,969.90
2019-01-28T02:07:35.904Z,969.87
2019-01-28T02:08:35.941Z,969.90
2019-01-28T02:09:35.978Z,969.91
2019-01-28T02:10:36.021Z,969.94
2019-01-28T02:11:36.049Z,969.90
2019-01-28T02:12:36.086Z,969.91
2019-01-28T02:13:36.120Z,969.92
2019-01-28T02:14:36.155Z,969.91
2019-01-28T02:15:36.199Z,969.97
2019-01-28T02:16:36.230Z,969.95
2019-01-28T02:17:36.267Z,969.93
2019-01-28T02:18:36.302Z,969.97
2019-01-28T02:19:36.338Z,969.96
2019-01-28T02:20:36.387Z,969.96
2019-01-28T02:21:36.412Z,969.98
2019-01-28T02:22:36.447Z,969.98
2019-01-28T02:23:36.484Z,970.00
2019-01-28T02:24:36.520Z,969.95
2019-01-28T02:25:36.558Z,969.94
2019-01-28T02:26:36.590Z,969.90
2019-01-28T02:27:36.629Z,969.91
2019-01-28T02:28:36.670Z,969.91
2019-01-28T02:29:36.701Z,969.90
2019-01-28T02:30:36.736Z,969.89
2019-01-28T02:31:36.772Z,969.86
2019-01-28T02:32:36.809Z,969.89
2019-01-28T02:33:36.855Z,969.92
2019-01-28T02:34:36.879Z,969.88
2019-01-28T02:35:36.919Z,969.94
2019-01-28T02:36:36.956Z,969.94
2019-01-28T02:37:36.991Z,969.93
2019-01-28T02:38:37.026Z,969.92
2019-01-28T02:39:37.066Z,969.94
2019-01-28T02:40:37.100Z,969.97
2019-01-28T02:41:37.136Z,969.97
2019-01-28T02:42:37.171Z,970.00
2019-01-28T02:43:37.209Z,970.02
2019-01-28T02:44:37.245Z,970.04
2019-01-28T02:45:37.283Z,969.97
2019-01-28T02:46:37.317Z,969.97
2019-01-28T02:47:37.354Z,969.97
2019-01-28T02:48:37.392Z,969.96
2019-01-28T02:49:37.430Z,970.01
2019-01-28T02:50:37.472Z,969.99
2019-01-28T02:51:37.503Z,969.95
2019-01-28T02:52:37.543Z,970.01
2019-01-28T02:53:37.575Z,969.95
2019-01-28T02:54:37.609Z,969.97
2019-01-28T02:55:37.656Z,969.94
2019-01-28T02:56:37.685Z,969.97
2019-01-28T02:57:37.720Z,969.97
2019-01-28T02:58:37.756Z,969.94
2019-01-28T02:59:37.791Z,969.98
2019-01-28T03:00:37.830Z,969.93
2019-01-28T03:01:37.874Z,969.97
2019-01-28T03:02:37.902Z,969.94
2019-01-28T03:03:37.937Z,969.96
2019-01-28T03:04:37.974Z,969.91
2019-01-28T03:05:38.011Z,969.92
2019-01-28T03:06:38.295Z,969.91
2019-01-28T03:07:38.083Z,969.89
2019-01-28T03:08:38.134Z,969.90
2019-01-28T03:09:38.155Z,969.92
2019-01-28T03:10:38.195Z,969.92
2019-01-28T03:11:38.433Z,969.93
2019-01-28T03:12:38.270Z,969.87
2019-01-28T03:13:38.301Z,969.88
2019-01-28T03:14:38.338Z,969.92
2019-01-28T03:15:38.375Z,969.85
2019-01-28T03:16:38.410Z,969.86
2019-01-28T03:17:38.457Z,969.88
2019-01-28T03:18:38.484Z,969.86
2019-01-28T03:19:38.535Z,969.84
2019-01-28T03:20:38.578Z,969.88
2019-01-28T03:21:38.592Z,969.87
2019-01-28T03:22:38.629Z,969.83
2019-01-28T03:23:38.667Z,969.87
2019-01-28T03:24:38.707Z,969.83
2019-01-28T03:25:38.740Z,969.86
2019-01-28T03:26:38.775Z,969.84
2019-01-28T03:27:40.361Z,969.80
2019-01-28T03:28:38.849Z,969.77
2019-01-28T03:29:38.888Z,969.80
2019-01-28T03:30:38.922Z,969.77
2019-01-28T03:31:38.959Z,969.77
2019-01-28T03:32:39.012Z,969.78
2019-01-28T03:33:39.031Z,969.73
2019-01-28T03:34:39.074Z,969.75
2019-01-28T03:35:39.103Z,969.73
2019-01-28T03:36:39.140Z,969.70
2019-01-28T03:37:39.186Z,969.70
2019-01-28T03:38:39.213Z,969.70
2019-01-28T03:39:39.250Z,969.67
2019-01-28T03:40:39.286Z,969.70
2019-01-28T03:41:39.323Z,969.69
2019-01-28T03:42:39.360Z,969.69
2019-01-28T03:43:39.397Z,969.69
2019-01-28T03:44:39.432Z,969.69
2019-01-28T03:45:39.473Z,969.70
2019-01-28T03:46:39.504Z,969.70
2019-01-28T03:47:39.541Z,969.65
2019-01-28T03:48:39.579Z,969.63
2019-01-28T03:49:39.615Z,969.65
2019-01-28T03:50:39.654Z,969.61
2019-01-28T03:51:39.688Z,969.58
2019-01-28T03:52:39.725Z,969.49
2019-01-28T03:53:39.765Z,969.50
2019-01-28T03:54:39.798Z,969.55
2019-01-28T03:55:39.845Z,969.51
2019-01-28T03:56:39.871Z,969.46
2019-01-28T03:57:39.912Z,969.39
2019-01-28T03:58:39.961Z,969.41
2019-01-28T03:59:39.979Z,969.41
2019-01-28T04:00:40.019Z,969.45
2019-01-28T04:01:40.054Z,969.39
2019-01-28T04:02:40.091Z,969.42
2019-01-28T04:03:40.127Z,969.47
2019-01-28T04:04:40.163Z,969.42
2019-01-28T04:05:40.198Z,969.49
2019-01-28T04:06:40.236Z,969.43
2019-01-28T04:07:40.274Z,969.49
2019-01-28T04:08:40.310Z,969.46
2019-01-28T04:09:40.345Z,969.45
2019-01-28T04:10:40.382Z,969.50
2019-01-28T04:11:40.418Z,969.40
2019-01-28T04:12:40.466Z,969.42
2019-01-28T04:13:40.490Z,969.39
2019-01-28T04:14:40.528Z,969.40
2019-01-28T04:15:40.564Z,969.38
2019-01-28T04:16:40.601Z,969.37
2019-01-28T04:17:40.639Z,969.36
2019-01-28T04:18:40.688Z,969.31
2019-01-28T04:19:40.710Z,969.24
2019-01-28T04:20:40.748Z,969.22
2019-01-28T04:21:40.785Z,969.24
2019-01-28T04:22:40.819Z,969.20
2019-01-28T04:23:40.856Z,969.15
2019-01-28T04:24:40.893Z,969.11
2019-01-28T04:25:40.938Z,969.18
2019-01-28T04:26:40.967Z,969.17
2019-01-28T04:27:41.016Z,969.17
2019-01-28T04:28:41.039Z,969.09
2019-01-28T04:29:41.077Z,969.12
2019-01-28T04:30:41.112Z,969.11
2019-01-28T04:31:41.151Z,969.10
2019-01-28T04:32:41.188Z,969.09
2019-01-28T04:33:41.225Z,969.12
2019-01-28T04:34:41.261Z,969.15
2019-01-28T04:35:41.297Z,969.09
2019-01-28T04:36:41.333Z,969.07
2019-01-28T04:37:41.370Z,969.07
2019-01-28T04:38:41.403Z,969.03
2019-01-28T04:39:41.442Z,969.02
2019-01-28T04:40:41.477Z,969.04
2019-01-28T04:41:41.513Z,969.05
2019-01-28T04:42:41.549Z,969.02
2019-01-28T04:43:41.587Z,969.04
2019-01-28T04:44:41.623Z,968.99
2019-01-28T04:45:41.661Z,969.01
2019-01-28T04:46:41.697Z,968.95
2019-01-28T04:47:41.737Z,968.97
2019-01-28T04:48:41.769Z,968.98
2019-01-28T04:49:41.809Z,968.98
2019-01-28T04:50:41.844Z,969.01
2019-01-28T04:51:41.879Z,969.01
2019-01-28T04:52:41.918Z,968.95
2019-01-28T04:53:41.952Z,969.03
2019-01-28T04:54:41.989Z,968.97
2019-01-28T04:55:42.025Z,969.00
2019-01-28T04:56:42.062Z,968.99
2019-01-28T04:57:42.101Z,968.97
2019-01-28T04:58:42.135Z,968.91
2019-01-28T04:59:42.172Z,968.91
2019-01-28T05:00:42.210Z,968.89
2019-01-28T05:01:42.247Z,968.89
2019-01-28T05:02:42.284Z,968.84
2019-01-28T05:03:42.319Z,968.86
2019-01-28T05:04:42.366Z,968.85
2019-01-28T05:05:42.395Z,968.85
2019-01-28T05:06:42.433Z,968.82
2019-01-28T05:07:42.465Z,968.81
2019-01-28T05:08:42.502Z,968.80
2019-01-28T05:09:42.539Z,968.77
2019-01-28T05:10:43.065Z,968.78
2019-01-28T05:11:42.621Z,968.74
2019-01-28T05:12:42.650Z,968.75
2019-01-28T05:13:42.685Z,968.70
2019-01-28T05:14:42.721Z,968.72
2019-01-28T05:15:42.757Z,968.68
2019-01-28T05:16:42.794Z,968.69
2019-01-28T05:17:42.831Z,968.71
2019-01-28T05:18:42.867Z,968.67
2019-01-28T05:19:42.903Z,968.65
2019-01-28T05:20:42.940Z,968.67
2019-01-28T05:21:42.985Z,968.64
2019-01-28T05:22:43.012Z,968.60
2019-01-28T05:23:43.050Z,968.61
2019-01-28T05:24:43.087Z,968.53
2019-01-28T05:25:43.124Z,968.60
2019-01-28T05:26:43.160Z,968.61
2019-01-28T05:27:43.197Z,968.58
2019-01-28T05:28:43.233Z,968.59
2019-01-28T05:29:43.270Z,968.62
2019-01-28T05:30:43.303Z,968.57
2019-01-28T05:31:43.340Z,968.55
2019-01-28T05:32:43.423Z,968.57
2019-01-28T05:33:43.418Z,968.54
2019-01-28T05:34:43.452Z,968.55
2019-01-28T05:35:43.495Z,968.57
2019-01-28T05:36:43.524Z,968.55
2019-01-28T05:37:43.562Z,968.57
2019-01-28T05:38:43.599Z,968.62
2019-01-28T05:39:43.636Z,968.53
2019-01-28T05:40:43.672Z,968.58
2019-01-28T05:41:43.711Z,968.53
2019-01-28T05:42:43.749Z,968.55
2019-01-28T05:43:43.780Z,968.57
2019-01-28T05:44:43.817Z,968.61
2019-01-28T05:45:43.853Z,968.59
2019-01-28T05:46:43.889Z,968.53
2019-01-28T05:47:43.930Z,968.54
2019-01-28T05:48:43.968Z,968.55
2019-01-28T05:49:44.007Z,968.54
2019-01-28T05:50:44.042Z,968.53
2019-01-28T05:51:44.070Z,968.53
2019-01-28T05:52:44.122Z,968.53
2019-01-28T05:53:44.151Z,968.55
2019-01-28T05:54:44.180Z,968.55
2019-01-28T05:55:44.232Z,968.50
2019-01-28T05:56:44.256Z,968.54
2019-01-28T05:57:44.305Z,968.56
2019-01-28T05:58:44.326Z,968.53
2019-01-28T05:59:44.362Z,968.61
2019-01-28T06:00:44.402Z,968.59
2019-01-28T06:01:44.436Z,968.63
2019-01-28T06:02:44.478Z,968.61
2019-01-28T06:03:44.516Z,968.59
2019-01-28T06:04:44.547Z,968.62
2019-01-28T06:05:44.594Z,968.60
2019-01-28T06:06:44.618Z,968.60
2019-01-28T06:07:44.667Z,968.62
2019-01-28T06:08:44.693Z,968.58
2019-01-28T06:09:44.746Z,968.59
2019-01-28T06:10:44.763Z,968.54
2019-01-28T06:11:44.802Z,968.63
2019-01-28T06:12:44.837Z,968.62
2019-01-28T06:13:44.889Z,968.63
2019-01-28T06:14:44.919Z,968.59
2019-01-28T06:15:44.956Z,968.62
2019-01-28T06:16:44.989Z,968.58
2019-01-28T06:17:45.019Z,968.64
2019-01-28T06:18:45.056Z,968.59
2019-01-28T06:19:45.092Z,968.59
2019-01-28T06:20:45.131Z,968.62
2019-01-28T06:21:45.170Z,968.65
2019-01-28T06:22:45.201Z,968.65
2019-01-28T06:23:45.238Z,968.64
2019-01-28T06:24:45.275Z,968.66
2019-01-28T06:25:45.313Z,968.64
2019-01-28T06:26:45.347Z,968.62
2019-01-28T06:27:45.428Z,968.65
2019-01-28T06:28:45.425Z,968.61
2019-01-28T06:29:45.456Z,968.62
2019-01-28T06:30:45.493Z,968.58
2019-01-28T06:31:45.530Z,968.63
2019-01-28T06:32:45.567Z,968.58
2019-01-28T06:33:45.604Z,968.63
2019-01-28T06:34:45.640Z,968.59
2019-01-28T06:35:45.700Z,968.64
2019-01-28T06:36:45.715Z,968.67
2019-01-28T06:37:45.750Z,968.64
2019-01-28T06:38:45.784Z,968.66
2019-01-28T06:39:45.823Z,968.67
2019-01-28T06:40:45.857Z,968.66
2019-01-28T06:41:45.898Z,968.69
2019-01-28T06:42:45.934Z,968.68
2019-01-28T06:43:45.969Z,968.68
2019-01-28T06:44:46.007Z,968.70
2019-01-28T06:45:46.041Z,968.72
2019-01-28T06:46:46.079Z,968.70
2019-01-28T06:47:46.879Z,968.67
2019-01-28T06:48:46.149Z,968.70
2019-01-28T06:49:46.187Z,968.64
2019-01-28T06:50:46.223Z,968.63
2019-01-28T06:51:46.262Z,968.63
2019-01-28T06:52:46.446Z,968.62
2019-01-28T06:53:46.333Z,968.69
2019-01-28T06:54:46.370Z,968.67
2019-01-28T06:55:46.440Z,968.69
2019-01-28T06:56:46.446Z,968.68
2019-01-28T06:57:46.476Z,968.63
2019-01-28T06:58:46.513Z,968.68
2019-01-28T06:59:46.550Z,968.66
2019-01-28T07:00:46.589Z,968.63
2019-01-28T07:01:46.622Z,968.69
2019-01-28T07:02:46.658Z,968.68
2019-01-28T07:03:46.694Z,968.63
2019-01-28T07:04:46.738Z,968.67
2019-01-28T07:05:46.767Z,968.65
2019-01-28T07:06:46.802Z,968.68
2019-01-28T07:07:46.842Z,968.69
2019-01-28T07:08:46.877Z,968.66
2019-01-28T07:09:46.912Z,968.65
2019-01-28T07:10:46.949Z,968.60
2019-01-28T07:11:46.986Z,968.67
2019-01-28T07:12:47.023Z,968.62
2019-01-28T07:13:47.060Z,968.62
2019-01-28T07:14:47.094Z,968.59
2019-01-28T07:15:47.131Z,968.64
2019-01-28T07:16:47.168Z,968.61
2019-01-28T07:17:54.375Z,968.57
2019-01-28T07:18:47.241Z,968.62
2019-01-28T07:19:47.290Z,968.61
2019-01-28T07:20:47.313Z,968.65
2019-01-28T07:21:47.348Z,968.59
2019-01-28T07:22:47.385Z,968.62
2019-01-28T07:23:47.425Z,968.63
2019-01-28T07:24:47.460Z,968.61
2019-01-28T07:25:47.496Z,968.62
2019-01-28T07:26:47.534Z,968.64
2019-01-28T07:27:47.565Z,968.61
2019-01-28T07:28:47.610Z,968.63
2019-01-28T07:29:47.643Z,968.64
2019-01-28T07:30:47.674Z,968.59
2019-01-28T07:31:47.722Z,968.60
2019-01-28T07:32:47.748Z,968.56
2019-01-28T07:33:47.788Z,968.59
2019-01-28T07:34:47.820Z,968.54
2019-01-28T07:35:47.858Z,968.54
2019-01-28T07:36:47.891Z,968.51
2019-01-28T07:37:47.931Z,968.55
2019-01-28T07:38:47.975Z,968.55
2019-01-28T07:39:48.005Z,968.53
2019-01-28T07:40:48.048Z,968.55
2019-01-28T07:41:48.077Z,968.56
2019-01-28T07:42:48.123Z,968.52
2019-01-28T07:43:48.147Z,968.52
2019-01-28T07:44:48.182Z,968.53
2019-01-28T07:45:48.221Z,968.56
2019-01-28T07:46:48.256Z,968.56
2019-01-28T07:47:48.294Z,968.52
2019-01-28T07:48:48.330Z,968.52
2019-01-28T07:49:48.366Z,968.53
2019-01-28T07:50:48.403Z,968.52
2019-01-28T07:51:48.436Z,968.53
2019-01-28T07:52:48.474Z,968.54
2019-01-28T07:53:48.510Z,968.55
2019-01-28T07:54:48.544Z,968.57
2019-01-28T07:55:48.580Z,968.51
2019-01-28T07:56:48.617Z,968.54
2019-01-28T07:57:48.655Z,968.57
2019-01-28T07:58:48.688Z,968.52
2019-01-28T07:59:48.725Z,968.59
2019-01-28T08:00:48.759Z,968.55
2019-01-28T08:01:48.797Z,968.53
2019-01-28T08:02:48.832Z,968.53
2019-01-28T08:03:48.872Z,968.53
2019-01-28T08:04:48.905Z,968.49
2019-01-28T08:05:48.942Z,968.53
2019-01-28T08:06:48.980Z,968.51
2019-01-28T08:07:49.016Z,968.49
2019-01-28T08:08:49.051Z,968.49
2019-01-28T08:09:49.086Z,968.46
2019-01-28T08:10:49.121Z,968.45
2019-01-28T08:11:49.157Z,968.48
2019-01-28T08:12:49.196Z,968.47
2019-01-28T08:13:49.231Z,968.45
2019-01-28T08:14:49.267Z,968.48
2019-01-28T08:15:49.302Z,968.47
2019-01-28T08:16:49.385Z,968.52
2019-01-28T08:17:49.378Z,968.55
2019-01-28T08:18:49.410Z,968.51
2019-01-28T08:19:49.447Z,968.50
2019-01-28T08:20:49.482Z,968.52
2019-01-28T08:21:49.523Z,968.54
2019-01-28T08:22:49.560Z,968.57
2019-01-28T08:23:49.591Z,968.55
2019-01-28T08:24:49.629Z,968.52
2019-01-28T08:25:49.665Z,968.59
2019-01-28T08:26:49.699Z,968.61
2019-01-28T08:27:49.738Z,968.59
2019-01-28T08:28:49.772Z,968.61
2019-01-28T08:29:49.808Z,968.63
2019-01-28T08:30:49.843Z,968.62
2019-01-28T08:31:49.892Z,968.63
2019-01-28T08:32:50.028Z,968.63
2019-01-28T08:33:49.959Z,968.67
2019-01-28T08:34:49.989Z,968.62
2019-01-28T08:35:50.023Z,968.68
2019-01-28T08:36:50.067Z,968.66
2019-01-28T08:37:50.103Z,968.60
2019-01-28T08:38:50.139Z,968.66
2019-01-28T08:39:50.169Z,968.60
2019-01-28T08:40:50.262Z,968.68
2019-01-28T08:41:50.247Z,968.68
2019-01-28T08:42:50.285Z,968.69
2019-01-28T08:43:50.331Z,968.68
2019-01-28T08:44:50.354Z,968.64
2019-01-28T08:45:50.384Z,968.67
2019-01-28T08:46:50.420Z,968.64
2019-01-28T08:47:50.458Z,968.61
2019-01-28T08:48:50.498Z,968.68
2019-01-28T08:49:50.529Z,968.68
2019-01-28T08:50:50.565Z,968.66
2019-01-28T08:51:50.609Z,968.68
2019-01-28T08:52:50.639Z,968.66
2019-01-28T08:53:50.674Z,968.68
2019-01-28T08:54:50.709Z,968.66
2019-01-28T08:55:50.748Z,968.64
2019-01-28T08:56:50.783Z,968.66
2019-01-28T08:57:50.818Z,968.60
2019-01-28T08:58:50.861Z,968.59
2019-01-28T08:59:50.901Z,968.55
2019-01-28T09:00:50.927Z,968.56
2019-01-28T09:01:50.968Z,968.54
2019-01-28T09:02:50.999Z,968.59
2019-01-28T09:03:51.036Z,968.54
2019-01-28T09:04:51.076Z,968.56
2019-01-28T09:05:51.108Z,968.55
2019-01-28T09:06:51.143Z,968.59
2019-01-28T09:07:51.180Z,968.56
2019-01-28T09:08:51.217Z,968.58
2019-01-28T09:09:51.255Z,968.54
2019-01-28T09:10:51.289Z,968.58
2019-01-28T09:11:51.340Z,968.56
2019-01-28T09:12:51.423Z,968.53
2019-01-28T09:13:51.400Z,968.60
2019-01-28T09:14:51.433Z,968.54
2019-01-28T09:15:51.470Z,968.56
2019-01-28T09:16:51.506Z,968.57
2019-01-28T09:17:51.544Z,968.60
2019-01-28T09:18:51.580Z,968.66
2019-01-28T09:19:51.615Z,968.65
2019-01-28T09:20:51.653Z,968.65
2019-01-28T09:21:51.688Z,968.64
2019-01-28T09:22:51.773Z,968.60
2019-01-28T09:23:51.761Z,968.62
2019-01-28T09:24:51.797Z,968.62
2019-01-28T09:25:51.834Z,968.60
2019-01-28T09:26:51.869Z,968.61
2019-01-28T09:27:51.907Z,968.60
2019-01-28T09:28:51.954Z,968.59
2019-01-28T09:29:51.982Z,968.60
2019-01-28T09:30:52.016Z,968.61
2019-01-28T09:31:52.053Z,968.66
2019-01-28T09:32:52.090Z,968.68
2019-01-28T09:33:52.132Z,968.66
2019-01-28T09:34:52.161Z,968.64
2019-01-28T09:35:52.198Z,968.60
2019-01-28T09:36:52.234Z,968.59
2019-01-28T09:37:52.274Z,968.57
2019-01-28T09:38:52.315Z,968.58
2019-01-28T09:39:52.346Z,968.63
2019-01-28T09:40:52.387Z,968.63
2019-01-28T09:41:52.415Z,968.64
2019-01-28T09:42:52.451Z,968.61
2019-01-28T09:43:52.519Z,968.65
2019-01-28T09:44:52.533Z,968.61
2019-01-28T09:45:52.560Z,968.66
2019-01-28T09:46:52.597Z,968.65
2019-01-28T09:47:52.633Z,968.74
2019-01-28T09:48:52.670Z,968.73
2019-01-28T09:49:52.709Z,968.70
2019-01-28T09:50:52.745Z,968.77
2019-01-28T09:51:52.780Z,968.79
2019-01-28T09:52:52.819Z,968.75
2019-01-28T09:53:52.854Z,968.79
2019-01-28T09:54:52.889Z,968.77
2019-01-28T09:55:52.977Z,968.74
2019-01-28T09:56:52.972Z,968.78
2019-01-28T09:57:52.999Z,968.76
2019-01-28T09:58:53.035Z,968.75
2019-01-28T09:59:53.073Z,968.75
2019-01-28T10:00:53.113Z,968.74
2019-01-28T10:01:53.161Z,968.72
2019-01-28T10:02:53.184Z,968.77
2019-01-28T10:03:53.223Z,968.73
2019-01-28T10:04:53.258Z,968.78
2019-01-28T10:05:53.295Z,968.72
2019-01-28T10:06:53.329Z,968.76
2019-01-28T10:07:53.367Z,968.77
2019-01-28T10:08:53.403Z,968.80
2019-01-28T10:09:53.549Z,968.82
2019-01-28T10:10:53.485Z,968.83
2019-01-28T10:11:53.512Z,968.85
2019-01-28T10:12:53.557Z,968.77
2019-01-28T10:13:53.586Z,968.77
2019-01-28T10:14:53.621Z,968.81
2019-01-28T10:15:53.658Z,968.81
2019-01-28T10:16:53.698Z,968.83
2019-01-28T10:17:55.566Z,968.83
2019-01-28T10:18:53.768Z,968.81
2019-01-28T10:19:53.805Z,968.86
2019-01-28T10:20:53.841Z,968.80
2019-01-28T10:21:53.879Z,968.83
2019-01-28T10:22:53.916Z,968.87
2019-01-28T10:23:53.951Z,968.87
2019-01-28T10:24:53.993Z,968.88
2019-01-28T10:25:57.785Z,968.89
2019-01-28T10:26:54.063Z,968.92
2019-01-28T10:27:54.099Z,968.95
2019-01-28T10:28:54.134Z,968.95
2019-01-28T10:29:54.172Z,968.95
2019-01-28T10:30:54.209Z,968.96
2019-01-28T10:31:54.264Z,968.97
2019-01-28T10:32:54.284Z,968.99
2019-01-28T10:33:54.320Z,968.96
2019-01-28T10:34:54.370Z,968.93
2019-01-28T10:35:54.393Z,968.98
2019-01-28T10:36:54.431Z,968.92
2019-01-28T10:37:54.471Z,968.96
2019-01-28T10:38:54.504Z,968.95
2019-01-28T10:39:54.539Z,968.94
2019-01-28T10:40:54.588Z,968.95
2019-01-28T10:41:54.614Z,968.92
2019-01-28T10:42:54.658Z,968.92
2019-01-28T10:43:54.686Z,968.87
2019-01-28T10:44:54.725Z,968.85
2019-01-28T10:45:54.762Z,968.81
2019-01-28T10:46:54.799Z,968.82
2019-01-28T10:47:54.835Z,968.83
2019-01-28T10:48:54.872Z,968.74
2019-01-28T10:49:54.909Z,968.78
2019-01-28T10:50:54.946Z,968.79
2019-01-28T10:51:54.980Z,968.75
2019-01-28T10:52:55.018Z,968.76
2019-01-28T10:53:55.062Z,968.81
2019-01-28T10:54:55.096Z,968.79
2019-01-28T10:55:55.130Z,968.82
2019-01-28T10:56:55.174Z,968.86
2019-01-28T10:57:55.204Z,968.89
2019-01-28T10:58:55.238Z,968.89
2019-01-28T10:59:55.276Z,968.98
2019-01-28T11:00:55.318Z,968.95
2019-01-28T11:01:55.351Z,968.99
2019-01-28T11:02:55.384Z,969.02
2019-01-28T11:03:55.432Z,969.13
2019-01-28T11:04:55.459Z,969.18
2019-01-28T11:05:55.500Z,969.17
2019-01-28T11:06:55.539Z,969.12
2019-01-28T11:07:55.588Z,969.09
2019-01-28T11:08:55.616Z,969.12
2019-01-28T11:09:55.656Z,969.04
2019-01-28T11:10:55.730Z,968.96
2019-01-28T11:11:55.748Z,969.01
2019-01-28T11:12:55.883Z,968.95
2019-01-28T11:13:55.893Z,969.02
2019-01-28T11:14:55.836Z,968.92
2019-01-28T11:15:55.933Z,968.95
2019-01-28T11:16:56.020Z,968.97
2019-01-28T11:17:55.982Z,968.91
2019-01-28T11:18:57.806Z,968.87
2019-01-28T11:19:56.038Z,968.86
2019-01-28T11:20:56.102Z,968.82
2019-01-28T11:21:56.130Z,968.88
2019-01-28T11:22:56.135Z,968.91
2019-01-28T11:23:56.207Z,968.88
2019-01-28T11:24:56.212Z,968.86
2019-01-28T11:25:56.317Z,968.83
2019-01-28T11:26:56.363Z,968.82
2019-01-28T11:27:56.385Z,968.82
2019-01-28T11:28:56.380Z,968.75
2019-01-28T11:29:56.534Z,968.80
2019-01-28T11:30:56.587Z,968.80
2019-01-28T11:31:56.510Z,968.83
2019-01-28T11:32:56.571Z,968.80
2019-01-28T11:33:56.614Z,968.82
2019-01-28T11:34:56.612Z,968.82
2019-01-28T11:36:04.713Z,968.78
2019-01-28T11:36:56.685Z,968.80
2019-01-28T11:37:56.739Z,968.81
2019-01-28T11:38:56.844Z,968.79
2019-01-28T11:39:56.788Z,968.82
2019-01-28T11:40:56.830Z,968.78
2019-01-28T11:41:56.933Z,968.75
2019-01-28T11:42:56.985Z,968.77
2019-01-28T11:43:57.044Z,968.82
2019-01-28T11:44:56.958Z,968.78
2019-01-28T11:45:57.168Z,968.79
2019-01-28T11:46:57.033Z,968.80
2019-01-28T11:47:57.083Z,968.85
2019-01-28T11:48:57.147Z,968.86
2019-01-28T11:49:57.267Z,968.85
2019-01-28T11:50:57.182Z,968.88
2019-01-28T11:51:57.218Z,968.87
2019-01-28T11:52:57.256Z,968.88
2019-01-28T11:53:57.444Z,968.89
2019-01-28T11:54:57.330Z,968.85
2019-01-28T11:55:57.366Z,968.79
2019-01-28T11:56:57.405Z,968.82
2019-01-28T11:57:57.455Z,968.79
2019-01-28T11:58:57.488Z,968.80
2019-01-28T11:59:57.516Z,968.78
2019-01-28T12:00:57.555Z,968.81
2019-01-28T12:01:57.644Z,968.80
2019-01-28T12:02:57.626Z,968.79
2019-01-28T12:03:57.665Z,968.83
2019-01-28T12:04:57.703Z,968.77
2019-01-28T12:05:57.746Z,968.77
2019-01-28T12:06:57.784Z,968.80
2019-01-28T12:07:57.811Z,968.82
2019-01-28T12:08:57.857Z,968.81
2019-01-28T12:09:57.892Z,968.86
2019-01-28T12:10:57.926Z,968.87
2019-01-28T12:11:57.962Z,968.86
2019-01-28T12:12:58.004Z,968.85
2019-01-28T12:13:58.038Z,968.86
2019-01-28T12:14:58.076Z,968.86
2019-01-28T12:15:58.118Z,968.87
2019-01-28T12:16:58.148Z,968.90
2019-01-28T12:17:58.183Z,968.86
2019-01-28T12:18:58.222Z,968.90
2019-01-28T12:19:58.257Z,968.85
2019-01-28T12:20:58.295Z,968.87
2019-01-28T12:21:58.340Z,968.91
2019-01-28T12:22:58.504Z,968.94
2019-01-28T12:23:58.405Z,968.91
2019-01-28T12:24:58.445Z,968.92
2019-01-28T12:25:58.479Z,968.94
2019-01-28T12:26:58.524Z,968.92
2019-01-28T12:27:58.553Z,968.96
2019-01-28T12:28:58.590Z,968.99